createdAt,value
2023-01-27T00:00:13.504Z, 40.17
2023-01-27T00:01:13.111Z, 40.08
2023-01-27T00:02:13.245Z, 40.02
2023-01-27T00:03:13.315Z, 40.05
2023-01-27T00:04:13.237Z, 40.03
2023-01-27T00:05:13.203Z, 40.01
2023-01-27T00:06:13.244Z, 39.95
2023-01-27T00:07:13.213Z, 39.95
2023-01-27T00:08:13.226Z, 39.91
2023-01-27T00:09:13.215Z, 39.91
2023-01-27T00:10:13.656Z, 39.86
2023-01-27T00:11:13.272Z, 39.84
2023-01-27T00:12:13.334Z, 39.84
2023-01-27T00:13:13.303Z, 39.80
2023-01-27T00:14:13.343Z, 39.77
2023-01-27T00:15:13.334Z, 39.72
2023-01-27T00:16:13.416Z, 39.71
2023-01-27T00:17:13.351Z, 39.71
2023-01-27T00:18:13.367Z, 39.71
2023-01-27T00:19:13.356Z, 39.65
2023-01-27T00:20:13.627Z, 39.66
2023-01-27T00:21:13.461Z, 39.60
2023-01-27T00:22:13.428Z, 39.59
2023-01-27T00:23:13.461Z, 39.60
2023-01-27T00:24:13.554Z, 39.55
2023-01-27T00:25:13.488Z, 39.51
2023-01-27T00:26:13.477Z, 39.46
2023-01-27T00:27:13.466Z, 39.40
2023-01-27T00:28:13.522Z, 39.42
2023-01-27T00:29:13.495Z, 39.37
2023-01-27T00:30:13.955Z, 39.32
2023-01-27T00:31:13.738Z, 39.36
2023-01-27T00:32:13.584Z, 39.33
2023-01-27T00:33:13.577Z, 39.31
2023-01-27T00:34:13.579Z, 39.32
2023-01-27T00:35:13.572Z, 39.29
2023-01-27T00:36:13.572Z, 39.17
2023-01-27T00:37:13.578Z, 39.22
2023-01-27T00:38:13.594Z, 39.16
2023-01-27T00:39:13.641Z, 39.15
2023-01-27T00:40:13.856Z, 39.09
2023-01-27T00:41:13.706Z, 39.11
2023-01-27T00:42:13.640Z, 39.09
2023-01-27T00:43:13.728Z, 39.08
2023-01-27T00:44:13.825Z, 39.03
2023-01-27T00:45:13.703Z, 39.05
2023-01-27T00:46:13.735Z, 39.02
2023-01-27T00:47:13.717Z, 39.03
2023-01-27T00:48:13.711Z, 39.01
2023-01-27T00:49:13.730Z, 38.99
2023-01-27T00:50:14.035Z, 38.94
2023-01-27T00:51:13.805Z, 38.93
2023-01-27T00:52:13.819Z, 38.87
2023-01-27T00:53:13.781Z, 38.82
2023-01-27T00:54:13.857Z, 38.78
2023-01-27T00:55:13.834Z, 38.78
2023-01-27T00:56:13.823Z, 38.78
2023-01-27T00:57:13.817Z, 38.71
2023-01-27T00:58:13.836Z, 38.64
2023-01-27T00:59:13.883Z, 38.59
2023-01-27T01:00:14.232Z, 38.59
2023-01-27T01:01:13.944Z, 38.60
2023-01-27T01:02:13.919Z, 38.53
2023-01-27T01:03:13.919Z, 38.55
2023-01-27T01:04:13.973Z, 38.53
2023-01-27T01:05:13.921Z, 38.50
2023-01-27T01:06:14.002Z, 38.47
2023-01-27T01:07:14.020Z, 38.46
2023-01-27T01:08:14.016Z, 38.48
2023-01-27T01:09:14.000Z, 38.45
2023-01-27T01:10:14.305Z, 38.43
2023-01-27T01:11:14.011Z, 38.39
2023-01-27T01:12:13.999Z, 38.37
2023-01-27T01:13:14.067Z, 38.33
2023-01-27T01:14:14.037Z, 38.32
2023-01-27T01:15:14.050Z, 38.32
2023-01-27T01:16:14.180Z, 38.29
2023-01-27T01:17:14.086Z, 38.28
2023-01-27T01:18:14.115Z, 38.19
2023-01-27T01:19:14.102Z, 38.20
2023-01-27T01:20:14.574Z, 38.21
2023-01-27T01:21:14.117Z, 38.14
2023-01-27T01:22:14.211Z, 38.08
2023-01-27T01:23:14.165Z, 38.09
2023-01-27T01:24:14.220Z, 38.06
2023-01-27T01:25:14.166Z, 38.02
2023-01-27T01:26:14.191Z, 38.05
2023-01-27T01:27:14.183Z, 38.02
2023-01-27T01:28:14.209Z, 38.03
2023-01-27T01:29:14.220Z, 38.04
2023-01-27T01:30:14.558Z, 38.03
2023-01-27T01:31:14.266Z, 37.98
2023-01-27T01:32:14.245Z, 38.01
2023-01-27T01:33:14.271Z, 37.97
2023-01-27T01:34:14.272Z, 37.93
2023-01-27T01:35:14.285Z, 37.93
2023-01-27T01:36:14.337Z, 37.88
2023-01-27T01:37:14.371Z, 37.87
2023-01-27T01:38:14.351Z, 37.85
2023-01-27T01:39:14.377Z, 37.85
2023-01-27T01:40:14.738Z, 37.76
2023-01-27T01:41:14.429Z, 37.74
2023-01-27T01:42:14.400Z, 37.71
2023-01-27T01:43:14.427Z, 37.75
2023-01-27T01:44:14.403Z, 37.74
2023-01-27T01:45:14.404Z, 37.68
2023-01-27T01:46:14.545Z, 37.68
2023-01-27T01:47:14.397Z, 37.68
2023-01-27T01:48:14.491Z, 37.65
2023-01-27T01:49:14.465Z, 37.67
2023-01-27T01:50:14.781Z, 37.63
2023-01-27T01:51:14.505Z, 37.62
2023-01-27T01:52:14.510Z, 37.59
2023-01-27T01:53:14.521Z, 37.59
2023-01-27T01:54:14.511Z, 37.54
2023-01-27T01:55:14.779Z, 37.51
2023-01-27T01:56:14.532Z, 37.47
2023-01-27T01:57:14.561Z, 37.45
2023-01-27T01:58:14.636Z, 37.51
2023-01-27T01:59:14.595Z, 37.47
2023-01-27T02:00:15.029Z, 37.37
2023-01-27T02:01:14.726Z, 37.33
2023-01-27T02:02:14.771Z, 37.31
2023-01-27T02:03:14.660Z, 37.32
2023-01-27T02:04:14.684Z, 37.27
2023-01-27T02:05:15.024Z, 37.24
2023-01-27T02:06:14.665Z, 37.25
2023-01-27T02:07:14.718Z, 37.23
2023-01-27T02:08:14.704Z, 37.23
2023-01-27T02:09:14.729Z, 37.23
2023-01-27T02:10:15.004Z, 37.24
2023-01-27T02:11:14.720Z, 37.18
2023-01-27T02:12:14.719Z, 37.17
2023-01-27T02:13:14.790Z, 37.17
2023-01-27T02:14:14.759Z, 37.15
2023-01-27T02:15:15.063Z, 37.15
2023-01-27T02:16:14.816Z, 37.13
2023-01-27T02:17:14.778Z, 37.16
2023-01-27T02:18:14.788Z, 37.13
2023-01-27T02:19:14.814Z, 37.09
2023-01-27T02:20:14.896Z, 37.05
2023-01-27T02:21:14.881Z, 37.03
2023-01-27T02:22:14.903Z, 36.96
2023-01-27T02:23:14.878Z, 36.99
2023-01-27T02:24:14.977Z, 36.92
2023-01-27T02:25:15.424Z, 36.91
2023-01-27T02:26:14.919Z, 36.86
2023-01-27T02:27:14.976Z, 36.79
2023-01-27T02:28:14.955Z, 36.76
2023-01-27T02:29:15.014Z, 36.81
2023-01-27T02:30:14.968Z, 36.80
2023-01-27T02:31:15.135Z, 36.77
2023-01-27T02:32:15.000Z, 36.77
2023-01-27T02:33:15.043Z, 36.71
2023-01-27T02:34:15.019Z, 36.72
2023-01-27T02:35:15.497Z, 36.72
2023-01-27T02:36:15.015Z, 36.75
2023-01-27T02:37:15.024Z, 36.73
2023-01-27T02:38:15.036Z, 36.67
2023-01-27T02:39:15.041Z, 36.67
2023-01-27T02:40:15.060Z, 36.63
2023-01-27T02:41:15.084Z, 36.64
2023-01-27T02:42:15.115Z, 36.57
2023-01-27T02:43:15.117Z, 36.57
2023-01-27T02:44:15.197Z, 36.55
2023-01-27T02:45:15.590Z, 36.55
2023-01-27T02:46:15.278Z, 36.55
2023-01-27T02:47:15.184Z, 36.49
2023-01-27T02:48:15.261Z, 36.50
2023-01-27T02:49:15.217Z, 36.49
2023-01-27T02:50:15.216Z, 36.43
2023-01-27T02:51:15.216Z, 36.42
2023-01-27T02:52:15.235Z, 36.39
2023-01-27T02:53:15.305Z, 36.43
2023-01-27T02:54:15.282Z, 36.38
2023-01-27T02:55:15.327Z, 36.31
2023-01-27T02:56:15.299Z, 36.25
2023-01-27T02:57:15.333Z, 36.29
2023-01-27T02:58:15.311Z, 36.29
2023-01-27T02:59:15.371Z, 36.28
2023-01-27T03:00:15.357Z, 36.29
2023-01-27T03:01:15.397Z, 36.28
2023-01-27T03:02:15.401Z, 36.20
2023-01-27T03:03:15.380Z, 36.20
2023-01-27T03:04:15.374Z, 36.20
2023-01-27T03:05:15.778Z, 36.15
2023-01-27T03:06:15.386Z, 36.17
2023-01-27T03:07:15.449Z, 36.19
2023-01-27T03:08:15.419Z, 36.20
2023-01-27T03:09:15.419Z, 36.15
2023-01-27T03:10:15.431Z, 36.08
2023-01-27T03:11:15.456Z, 36.08
2023-01-27T03:12:15.540Z, 36.04
2023-01-27T03:13:15.511Z, 36.02
2023-01-27T03:14:15.549Z, 35.98
2023-01-27T03:15:15.892Z, 36.00
2023-01-27T03:16:15.586Z, 36.04
2023-01-27T03:17:15.563Z, 36.04
2023-01-27T03:18:15.559Z, 36.04
2023-01-27T03:19:15.575Z, 35.98
2023-01-27T03:20:15.566Z, 35.96
2023-01-27T03:21:15.604Z, 35.94
2023-01-27T03:22:15.578Z, 35.91
2023-01-27T03:23:15.712Z, 35.89
2023-01-27T03:24:15.694Z, 35.83
2023-01-27T03:25:16.077Z, 35.86
2023-01-27T03:26:15.634Z, 35.84
2023-01-27T03:27:15.637Z, 35.84
2023-01-27T03:28:15.632Z, 35.78
2023-01-27T03:29:15.635Z, 35.75
2023-01-27T03:30:15.647Z, 35.74
2023-01-27T03:31:15.811Z, 35.72
2023-01-27T03:32:15.749Z, 35.72
2023-01-27T03:33:15.716Z, 35.68
2023-01-27T03:34:15.785Z, 35.65
2023-01-27T03:35:15.755Z, 35.63
2023-01-27T03:36:15.790Z, 35.62
2023-01-27T03:37:15.783Z, 35.59
2023-01-27T03:38:15.774Z, 35.62
2023-01-27T03:39:15.779Z, 35.58
2023-01-27T03:40:15.780Z, 35.53
2023-01-27T03:41:15.786Z, 35.55
2023-01-27T03:42:15.806Z, 35.54
2023-01-27T03:43:15.826Z, 35.56
2023-01-27T03:44:15.837Z, 35.50
2023-01-27T03:45:15.919Z, 35.45
2023-01-27T03:46:15.911Z, 35.49
2023-01-27T03:47:15.945Z, 35.46
2023-01-27T03:48:15.931Z, 35.47
2023-01-27T03:49:15.934Z, 35.47
2023-01-27T03:50:15.922Z, 35.45
2023-01-27T03:51:15.930Z, 35.41
2023-01-27T03:52:15.925Z, 35.37
2023-01-27T03:53:15.967Z, 35.37
2023-01-27T03:54:15.955Z, 35.36
2023-01-27T03:55:16.030Z, 35.33
2023-01-27T03:56:15.994Z, 35.34
2023-01-27T03:57:15.991Z, 35.30
2023-01-27T03:58:15.989Z, 35.33
2023-01-27T03:59:16.021Z, 35.33
2023-01-27T04:00:16.089Z, 35.28
2023-01-27T04:01:16.152Z, 35.25
2023-01-27T04:02:16.127Z, 35.26
2023-01-27T04:03:16.101Z, 35.22
2023-01-27T04:04:16.110Z, 35.22
2023-01-27T04:05:16.320Z, 35.18
2023-01-27T04:06:16.126Z, 35.21
2023-01-27T04:07:16.132Z, 35.16
2023-01-27T04:08:16.147Z, 35.16
2023-01-27T04:09:16.152Z, 35.19
2023-01-27T04:10:16.156Z, 35.16
2023-01-27T04:11:16.175Z, 35.14
2023-01-27T04:12:16.189Z, 35.09
2023-01-27T04:13:16.208Z, 35.07
2023-01-27T04:14:16.233Z, 35.10
2023-01-27T04:15:16.297Z, 35.09
2023-01-27T04:16:16.350Z, 35.07
2023-01-27T04:17:16.297Z, 35.04
2023-01-27T04:18:16.315Z, 35.01
2023-01-27T04:19:16.303Z, 35.00
2023-01-27T04:20:16.299Z, 34.94
2023-01-27T04:21:16.293Z, 34.93
2023-01-27T04:22:16.302Z, 34.94
2023-01-27T04:23:16.302Z, 34.91
2023-01-27T04:24:16.388Z, 34.91
2023-01-27T04:25:16.696Z, 34.89
2023-01-27T04:26:16.361Z, 34.89
2023-01-27T04:27:16.353Z, 34.85
2023-01-27T04:28:22.308Z, 34.81
2023-01-27T04:29:16.390Z, 34.77
2023-01-27T04:30:16.405Z, 34.76
2023-01-27T04:31:16.603Z, 35.12
2023-01-27T04:32:16.462Z, 36.54
2023-01-27T04:33:16.509Z, 36.90
2023-01-27T04:34:16.489Z, 36.89
2023-01-27T04:35:16.489Z, 36.78
2023-01-27T04:36:16.479Z, 36.53
2023-01-27T04:37:16.488Z, 36.22
2023-01-27T04:38:16.517Z, 35.73
2023-01-27T04:39:16.496Z, 35.05
2023-01-27T04:40:16.506Z, 34.32
2023-01-27T04:41:16.546Z, 33.41
2023-01-27T04:42:16.604Z, 34.99
2023-01-27T04:43:16.579Z, 37.83
2023-01-27T04:44:16.578Z, 39.59
2023-01-27T04:45:16.585Z, 40.57
2023-01-27T04:46:16.592Z, 41.39
2023-01-27T04:47:16.578Z, 41.89
2023-01-27T04:48:16.592Z, 42.32
2023-01-27T04:49:16.698Z, 42.75
2023-01-27T04:50:16.664Z, 43.16
2023-01-27T04:51:16.671Z, 43.57
2023-01-27T04:52:16.707Z, 44.12
2023-01-27T04:53:16.711Z, 44.54
2023-01-27T04:54:16.827Z, 45.19
2023-01-27T04:55:16.779Z, 45.81
2023-01-27T04:56:16.793Z, 46.61
2023-01-27T04:57:16.754Z, 47.18
2023-01-27T04:58:16.802Z, 48.04
2023-01-27T04:59:16.780Z, 48.76
2023-01-27T05:00:17.514Z, 49.85
2023-01-27T05:01:16.778Z, 51.53
2023-01-27T05:02:16.821Z, 53.14
2023-01-27T05:03:16.888Z, 54.98
2023-01-27T05:04:16.836Z, 56.51
2023-01-27T05:05:16.899Z, 56.73
2023-01-27T05:06:16.865Z, 55.10
2023-01-27T05:07:16.910Z, 53.00
2023-01-27T05:08:16.868Z, 50.92
2023-01-27T05:09:16.927Z, 49.03
2023-01-27T05:10:16.888Z, 47.44
2023-01-27T05:11:16.942Z, 46.03
2023-01-27T05:12:16.948Z, 44.52
2023-01-27T05:13:16.935Z, 42.68
2023-01-27T05:14:16.962Z, 40.63
2023-01-27T05:15:16.939Z, 44.09
2023-01-27T05:16:17.037Z, 48.94
2023-01-27T05:17:17.043Z, 52.51
2023-01-27T05:18:17.012Z, 55.50
2023-01-27T05:19:17.001Z, 58.16
2023-01-27T05:20:16.999Z, 58.75
2023-01-27T05:21:17.053Z, 58.13
2023-01-27T05:22:17.038Z, 57.19
2023-01-27T05:23:17.056Z, 56.07
2023-01-27T05:24:17.163Z, 54.95
2023-01-27T05:25:17.111Z, 53.87
2023-01-27T05:26:17.082Z, 52.78
2023-01-27T05:27:17.154Z, 51.84
2023-01-27T05:28:17.139Z, 50.91
2023-01-27T05:29:17.150Z, 50.11
2023-01-27T05:30:17.137Z, 49.37
2023-01-27T05:31:17.263Z, 48.59
2023-01-27T05:32:17.182Z, 48.07
2023-01-27T05:33:17.173Z, 48.11
2023-01-27T05:34:17.220Z, 50.87
2023-01-27T05:35:17.189Z, 53.14
2023-01-27T05:36:17.219Z, 56.44
2023-01-27T05:37:17.280Z, 59.71
2023-01-27T05:38:17.235Z, 69.10
2023-01-27T05:39:17.265Z, 57.01
2023-01-27T05:40:17.238Z, 53.76
2023-01-27T05:41:17.261Z, 54.86
2023-01-27T05:42:17.253Z, 56.12
2023-01-27T05:43:17.330Z, 58.17
2023-01-27T05:44:17.323Z, 61.53
2023-01-27T05:45:17.353Z, 64.91
2023-01-27T05:46:17.358Z, 53.16
2023-01-27T05:47:17.379Z, 54.16
2023-01-27T05:48:17.367Z, 55.35
2023-01-27T05:49:17.412Z, 56.70
2023-01-27T05:50:17.410Z, 57.62
2023-01-27T05:51:17.437Z, 58.31
2023-01-27T05:52:17.407Z, 60.03
2023-01-27T05:53:17.406Z, 61.14
2023-01-27T05:54:17.487Z, 60.65
2023-01-27T05:55:17.435Z, 59.43
2023-01-27T05:56:17.464Z, 58.17
2023-01-27T05:57:17.446Z, 57.24
2023-01-27T05:58:17.505Z, 56.38
2023-01-27T05:59:17.485Z, 55.54
2023-01-27T06:00:17.482Z, 54.67
2023-01-27T06:01:17.478Z, 53.72
2023-01-27T06:02:17.489Z, 52.85
2023-01-27T06:03:17.486Z, 52.05
2023-01-27T06:04:17.492Z, 51.32
2023-01-27T06:05:17.570Z, 50.63
2023-01-27T06:06:17.546Z, 49.96
2023-01-27T06:07:17.616Z, 49.36
2023-01-27T06:08:17.581Z, 48.74
2023-01-27T06:09:17.651Z, 48.12
2023-01-27T06:10:17.628Z, 47.39
2023-01-27T06:11:17.645Z, 46.61
2023-01-27T06:12:17.648Z, 45.77
2023-01-27T06:13:17.656Z, 44.70
2023-01-27T06:14:17.659Z, 47.17
2023-01-27T06:15:17.663Z, 53.92
2023-01-27T06:16:17.715Z, 57.79
2023-01-27T06:17:17.669Z, 59.90
2023-01-27T06:18:17.751Z, 59.37
2023-01-27T06:19:17.720Z, 58.48
2023-01-27T06:20:17.747Z, 57.91
2023-01-27T06:21:17.730Z, 57.46
2023-01-27T06:22:17.742Z, 57.03
2023-01-27T06:23:17.802Z, 56.65
2023-01-27T06:24:17.812Z, 56.28
2023-01-27T06:25:17.804Z, 55.94
2023-01-27T06:26:17.779Z, 55.65
2023-01-27T06:27:17.807Z, 55.36
2023-01-27T06:28:28.876Z, 55.05
2023-01-27T06:29:17.821Z, 54.80
2023-01-27T06:30:17.843Z, 54.52
2023-01-27T06:31:17.965Z, 54.30
2023-01-27T06:32:17.913Z, 54.06
2023-01-27T06:33:17.915Z, 53.82
2023-01-27T06:34:17.934Z, 53.58
2023-01-27T06:35:17.921Z, 53.35
2023-01-27T06:36:17.980Z, 53.17
2023-01-27T06:37:17.967Z, 52.97
2023-01-27T06:38:17.960Z, 52.73
2023-01-27T06:39:17.979Z, 52.55
2023-01-27T06:40:17.977Z, 52.45
2023-01-27T06:41:18.024Z, 52.19
2023-01-27T06:42:18.019Z, 52.02
2023-01-27T06:43:18.058Z, 51.81
2023-01-27T06:44:18.044Z, 51.67
2023-01-27T06:45:18.043Z, 51.54
2023-01-27T06:46:18.221Z, 51.35
2023-01-27T06:47:18.099Z, 51.20
2023-01-27T06:48:18.164Z, 51.07
2023-01-27T06:49:18.125Z, 50.88
2023-01-27T06:50:18.126Z, 50.69
2023-01-27T06:51:18.118Z, 50.56
2023-01-27T06:52:18.199Z, 50.37
2023-01-27T06:53:18.174Z, 50.18
2023-01-27T06:54:18.212Z, 50.05
2023-01-27T06:55:18.206Z, 49.91
2023-01-27T06:56:18.241Z, 49.74
2023-01-27T06:57:18.212Z, 49.63
2023-01-27T06:58:18.252Z, 49.52
2023-01-27T06:59:18.222Z, 49.34
2023-01-27T07:00:18.285Z, 49.21
2023-01-27T07:01:18.302Z, 49.08
2023-01-27T07:02:18.289Z, 48.97
2023-01-27T07:03:18.304Z, 48.87
2023-01-27T07:04:18.258Z, 48.74
2023-01-27T07:05:18.281Z, 48.75
2023-01-27T07:06:18.338Z, 48.61
2023-01-27T07:07:18.308Z, 48.49
2023-01-27T07:08:18.326Z, 48.35
2023-01-27T07:09:18.320Z, 48.29
2023-01-27T07:10:18.361Z, 48.18
2023-01-27T07:11:18.365Z, 48.00
2023-01-27T07:12:18.383Z, 47.85
2023-01-27T07:13:18.385Z, 47.82
2023-01-27T07:14:18.391Z, 47.66
2023-01-27T07:15:18.437Z, 47.50
2023-01-27T07:16:18.509Z, 47.45
2023-01-27T07:17:18.518Z, 47.40
2023-01-27T07:18:18.507Z, 47.26
2023-01-27T07:19:18.536Z, 47.22
2023-01-27T07:20:18.496Z, 47.10
2023-01-27T07:21:18.524Z, 47.05
2023-01-27T07:22:18.511Z, 47.00
2023-01-27T07:23:18.578Z, 46.86
2023-01-27T07:24:18.574Z, 46.83
2023-01-27T07:25:18.565Z, 46.72
2023-01-27T07:26:24.842Z, 46.63
2023-01-27T07:27:18.568Z, 46.50
2023-01-27T07:28:18.633Z, 46.41
2023-01-27T07:29:18.573Z, 46.36
2023-01-27T07:30:18.671Z, 46.34
2023-01-27T07:31:18.768Z, 46.23
2023-01-27T07:32:18.659Z, 46.09
2023-01-27T07:33:18.652Z, 46.05
2023-01-27T07:34:18.726Z, 45.98
2023-01-27T07:35:18.703Z, 45.92
2023-01-27T07:36:18.756Z, 45.87
2023-01-27T07:37:18.751Z, 45.77
2023-01-27T07:38:18.752Z, 45.72
2023-01-27T07:39:18.729Z, 45.68
2023-01-27T07:40:18.724Z, 45.52
2023-01-27T07:41:18.789Z, 45.46
2023-01-27T07:42:18.754Z, 45.45
2023-01-27T07:43:18.826Z, 45.42
2023-01-27T07:44:18.807Z, 45.36
2023-01-27T07:45:18.832Z, 45.27
2023-01-27T07:46:18.821Z, 45.17
2023-01-27T07:47:18.821Z, 45.12
2023-01-27T07:48:18.811Z, 44.99
2023-01-27T07:49:18.836Z, 44.96
2023-01-27T07:50:18.816Z, 44.87
2023-01-27T07:51:18.836Z, 44.83
2023-01-27T07:52:18.863Z, 44.78
2023-01-27T07:53:18.859Z, 44.75
2023-01-27T07:54:18.883Z, 44.71
2023-01-27T07:55:18.882Z, 44.67
2023-01-27T07:56:18.918Z, 44.60
2023-01-27T07:57:18.912Z, 44.58
2023-01-27T07:58:18.997Z, 44.47
2023-01-27T07:59:18.996Z, 44.42
2023-01-27T08:00:18.982Z, 44.36
2023-01-27T08:01:19.074Z, 44.34
2023-01-27T08:02:18.990Z, 44.31
2023-01-27T08:03:19.034Z, 44.17
2023-01-27T08:04:19.062Z, 44.14
2023-01-27T08:05:19.082Z, 44.05
2023-01-27T08:06:19.061Z, 43.97
2023-01-27T08:07:19.068Z, 43.92
2023-01-27T08:08:19.114Z, 43.90
2023-01-27T08:09:19.075Z, 43.81
2023-01-27T08:10:19.124Z, 43.80
2023-01-27T08:11:19.101Z, 43.75
2023-01-27T08:12:19.145Z, 43.68
2023-01-27T08:13:19.229Z, 43.60
2023-01-27T08:14:19.181Z, 43.55
2023-01-27T08:15:19.437Z, 43.55
2023-01-27T08:16:19.185Z, 43.48
2023-01-27T08:17:19.153Z, 43.44
2023-01-27T08:18:19.223Z, 43.37
2023-01-27T08:19:19.185Z, 43.34
2023-01-27T08:20:19.237Z, 43.28
2023-01-27T08:21:19.209Z, 43.29
2023-01-27T08:22:19.228Z, 43.27
2023-01-27T08:23:19.258Z, 43.17
2023-01-27T08:24:19.323Z, 43.11
2023-01-27T08:25:19.275Z, 43.00
2023-01-27T08:26:19.265Z, 43.03
2023-01-27T08:27:19.263Z, 42.99
2023-01-27T08:28:19.257Z, 43.00
2023-01-27T08:29:19.263Z, 42.98
2023-01-27T08:30:19.389Z, 42.90
2023-01-27T08:31:19.375Z, 42.89
2023-01-27T08:32:19.308Z, 42.82
2023-01-27T08:33:19.331Z, 42.77
2023-01-27T08:34:19.308Z, 42.80
2023-01-27T08:35:19.334Z, 42.83
2023-01-27T08:36:19.315Z, 42.69
2023-01-27T08:37:19.312Z, 42.70
2023-01-27T08:38:19.318Z, 42.64
2023-01-27T08:39:19.322Z, 42.65
2023-01-27T08:40:19.407Z, 42.55
2023-01-27T08:41:19.378Z, 42.46
2023-01-27T08:42:19.390Z, 42.45
2023-01-27T08:43:19.395Z, 42.42
2023-01-27T08:44:19.402Z, 42.33
2023-01-27T08:45:19.485Z, 42.27
2023-01-27T08:46:19.464Z, 42.28
2023-01-27T08:47:19.514Z, 42.30
2023-01-27T08:48:19.496Z, 42.19
2023-01-27T08:49:19.494Z, 42.20
2023-01-27T08:50:19.505Z, 42.09
2023-01-27T08:51:19.496Z, 42.09
2023-01-27T08:52:19.505Z, 42.08
2023-01-27T08:53:19.519Z, 42.04
2023-01-27T08:54:19.547Z, 41.96
2023-01-27T08:55:19.542Z, 41.89
2023-01-27T08:56:19.631Z, 41.93
2023-01-27T08:57:19.626Z, 41.86
2023-01-27T08:58:19.637Z, 41.82
2023-01-27T08:59:19.605Z, 41.78
2023-01-27T09:00:19.615Z, 41.79
2023-01-27T09:01:19.632Z, 41.75
2023-01-27T09:02:19.605Z, 41.66
2023-01-27T09:03:19.661Z, 41.66
2023-01-27T09:04:19.669Z, 41.63
2023-01-27T09:05:19.730Z, 41.62
2023-01-27T09:06:19.792Z, 41.56
2023-01-27T09:07:19.753Z, 41.51
2023-01-27T09:08:19.763Z, 41.52
2023-01-27T09:09:19.753Z, 41.51
2023-01-27T09:10:19.802Z, 41.43
2023-01-27T09:11:19.757Z, 41.41
2023-01-27T09:12:19.767Z, 41.37
2023-01-27T09:13:19.778Z, 41.40
2023-01-27T09:14:19.779Z, 41.35
2023-01-27T09:15:19.802Z, 41.29
2023-01-27T09:16:19.925Z, 41.28
2023-01-27T09:17:19.885Z, 41.24
2023-01-27T09:18:19.861Z, 41.17
2023-01-27T09:19:19.868Z, 41.19
2023-01-27T09:20:19.855Z, 41.15
2023-01-27T09:21:19.865Z, 41.11
2023-01-27T09:22:19.871Z, 41.12
2023-01-27T09:23:19.961Z, 41.12
2023-01-27T09:24:19.951Z, 41.03
2023-01-27T09:25:19.988Z, 40.97
2023-01-27T09:26:19.956Z, 40.96
2023-01-27T09:27:33.323Z, 40.91
2023-01-27T09:28:19.974Z, 40.92
2023-01-27T09:29:19.961Z, 40.83
2023-01-27T09:30:19.983Z, 40.82
2023-01-27T09:31:20.198Z, 40.78
2023-01-27T09:32:20.094Z, 40.77
2023-01-27T09:33:20.056Z, 40.77
2023-01-27T09:34:20.143Z, 40.73
2023-01-27T09:35:20.088Z, 40.68
2023-01-27T09:36:20.092Z, 40.70
2023-01-27T09:37:20.086Z, 40.59
2023-01-27T09:38:20.099Z, 40.53
2023-01-27T09:39:20.110Z, 40.53
2023-01-27T09:40:20.123Z, 40.48
2023-01-27T09:41:20.152Z, 40.46
2023-01-27T09:42:20.134Z, 40.50
2023-01-27T09:43:20.225Z, 40.43
2023-01-27T09:44:20.194Z, 40.45
2023-01-27T09:45:20.271Z, 40.42
2023-01-27T09:46:20.288Z, 40.32
2023-01-27T09:47:20.223Z, 40.35
2023-01-27T09:48:20.221Z, 40.31
2023-01-27T09:49:20.237Z, 40.29
2023-01-27T09:50:20.235Z, 40.24
2023-01-27T09:51:20.315Z, 40.17
2023-01-27T09:52:20.271Z, 40.17
2023-01-27T09:53:20.336Z, 40.24
2023-01-27T09:54:20.292Z, 40.15
2023-01-27T09:55:20.348Z, 40.12
2023-01-27T09:56:20.325Z, 40.06
2023-01-27T09:57:20.317Z, 40.00
2023-01-27T09:58:20.329Z, 40.00
2023-01-27T09:59:20.324Z, 40.04
2023-01-27T10:00:20.422Z, 40.02
2023-01-27T10:01:20.429Z, 40.05
2023-01-27T10:02:20.461Z, 40.01
2023-01-27T10:03:20.426Z, 39.94
2023-01-27T10:04:20.518Z, 39.94
2023-01-27T10:05:20.439Z, 39.86
2023-01-27T10:06:20.462Z, 39.79
2023-01-27T10:07:20.444Z, 39.79
2023-01-27T10:08:20.440Z, 39.79
2023-01-27T10:09:20.456Z, 39.79
2023-01-27T10:10:20.457Z, 39.78
2023-01-27T10:11:20.470Z, 39.77
2023-01-27T10:12:20.493Z, 39.76
2023-01-27T10:13:20.501Z, 39.78
2023-01-27T10:14:20.519Z, 39.69
2023-01-27T10:15:20.507Z, 39.70
2023-01-27T10:16:20.615Z, 39.63
2023-01-27T10:17:20.635Z, 39.62
2023-01-27T10:18:20.590Z, 39.55
2023-01-27T10:19:20.638Z, 39.48
2023-01-27T10:20:20.663Z, 39.45
2023-01-27T10:21:20.651Z, 39.41
2023-01-27T10:22:20.637Z, 39.42
2023-01-27T10:23:20.689Z, 39.35
2023-01-27T10:24:20.711Z, 39.37
2023-01-27T10:25:20.719Z, 39.33
2023-01-27T10:26:20.690Z, 39.28
2023-01-27T10:27:20.695Z, 39.29
2023-01-27T10:28:20.692Z, 39.21
2023-01-27T10:29:20.707Z, 39.20
2023-01-27T10:30:20.760Z, 39.26
2023-01-27T10:31:20.801Z, 39.23
2023-01-27T10:32:20.796Z, 39.15
2023-01-27T10:33:20.796Z, 39.12
2023-01-27T10:34:20.818Z, 39.17
2023-01-27T10:35:20.924Z, 39.17
2023-01-27T10:36:20.795Z, 39.15
2023-01-27T10:37:20.798Z, 39.09
2023-01-27T10:38:20.796Z, 39.09
2023-01-27T10:39:20.797Z, 39.06
2023-01-27T10:40:20.840Z, 39.06
2023-01-27T10:41:20.833Z, 39.02
2023-01-27T10:42:20.831Z, 39.02
2023-01-27T10:43:20.931Z, 39.00
2023-01-27T10:44:20.899Z, 38.98
2023-01-27T10:45:20.982Z, 38.98
2023-01-27T10:46:21.017Z, 38.89
2023-01-27T10:47:20.959Z, 38.89
2023-01-27T10:48:20.950Z, 38.91
2023-01-27T10:49:22.259Z, 38.87
2023-01-27T10:50:20.988Z, 38.75
2023-01-27T10:51:20.983Z, 38.72
2023-01-27T10:52:21.002Z, 38.74
2023-01-27T10:53:20.983Z, 38.75
2023-01-27T10:54:21.064Z, 38.73
2023-01-27T10:55:21.028Z, 38.67
2023-01-27T10:56:21.080Z, 38.61
2023-01-27T10:57:21.080Z, 38.60
2023-01-27T10:58:21.131Z, 38.61
2023-01-27T10:59:21.091Z, 38.54
2023-01-27T11:00:46.511Z, 38.49
2023-01-27T11:01:22.278Z, 38.68
2023-01-27T11:02:21.158Z, 44.15
2023-01-27T11:03:21.108Z, 52.46
2023-01-27T11:04:21.232Z, 54.18
2023-01-27T11:05:21.109Z, 50.72
2023-01-27T11:06:21.127Z, 47.24
2023-01-27T11:07:21.236Z, 45.03
2023-01-27T11:08:21.203Z, 42.60
2023-01-27T11:09:23.797Z, 39.60
2023-01-27T11:10:21.304Z, 37.27
2023-01-27T11:11:21.221Z, 34.55
2023-01-27T11:12:21.230Z, 32.21
2023-01-27T11:13:21.229Z, 34.38
2023-01-27T11:14:21.304Z, 37.20
2023-01-27T11:15:21.302Z, 39.32
2023-01-27T11:16:21.351Z, 41.16
2023-01-27T11:17:21.313Z, 42.56
2023-01-27T11:18:21.329Z, 43.76
2023-01-27T11:19:21.330Z, 44.89
2023-01-27T11:20:21.357Z, 45.72
2023-01-27T11:21:21.346Z, 46.60
2023-01-27T11:22:21.356Z, 47.37
2023-01-27T11:23:21.346Z, 48.24
2023-01-27T11:24:21.394Z, 49.56
2023-01-27T11:25:21.437Z, 51.16
2023-01-27T11:26:23.670Z, 52.91
2023-01-27T11:27:21.450Z, 54.69
2023-01-27T11:28:21.451Z, 53.82
2023-01-27T11:29:21.472Z, 51.24
2023-01-27T11:30:21.495Z, 48.80
2023-01-27T11:31:21.702Z, 49.10
2023-01-27T11:32:21.504Z, 49.10
2023-01-27T11:33:21.510Z, 49.10
2023-01-27T11:34:21.477Z, 49.05
2023-01-27T11:35:21.600Z, 48.83
2023-01-27T11:36:21.583Z, 48.62
2023-01-27T11:37:21.604Z, 48.39
2023-01-27T11:38:21.610Z, 48.16
2023-01-27T11:39:21.573Z, 47.97
2023-01-27T11:40:21.616Z, 47.80
2023-01-27T11:41:21.606Z, 47.62
2023-01-27T11:42:21.618Z, 47.40
2023-01-27T11:43:21.604Z, 47.21
2023-01-27T11:44:21.645Z, 46.97
2023-01-27T11:45:21.645Z, 46.78
2023-01-27T11:46:21.639Z, 46.56
2023-01-27T11:47:21.652Z, 46.37
2023-01-27T11:48:23.422Z, 46.18
2023-01-27T11:49:21.723Z, 46.04
2023-01-27T11:50:21.727Z, 45.80
2023-01-27T11:51:21.752Z, 45.62
2023-01-27T11:52:21.717Z, 45.43
2023-01-27T11:53:21.730Z, 45.24
2023-01-27T11:54:21.720Z, 45.05
2023-01-27T11:55:21.769Z, 44.89
2023-01-27T11:56:21.761Z, 44.66
2023-01-27T11:57:21.757Z, 44.53
2023-01-27T11:58:21.835Z, 44.33
2023-01-27T11:59:21.811Z, 44.20
2023-01-27T12:00:21.838Z, 44.05
2023-01-27T12:01:21.827Z, 43.86
2023-01-27T12:02:21.933Z, 43.75
2023-01-27T12:03:22.026Z, 43.57
2023-01-27T12:04:21.954Z, 43.41
2023-01-27T12:05:21.883Z, 43.28
2023-01-27T12:06:21.879Z, 43.10
2023-01-27T12:07:21.883Z, 42.96
2023-01-27T12:08:21.896Z, 42.82
2023-01-27T12:09:21.917Z, 42.68
2023-01-27T12:10:21.903Z, 42.52
2023-01-27T12:11:21.925Z, 42.37
2023-01-27T12:12:21.946Z, 42.23
2023-01-27T12:13:21.957Z, 42.14
2023-01-27T12:14:21.962Z, 41.99
2023-01-27T12:15:21.977Z, 41.86
2023-01-27T12:16:22.069Z, 41.67
2023-01-27T12:17:22.010Z, 41.57
2023-01-27T12:18:22.009Z, 41.49
2023-01-27T12:19:22.105Z, 41.37
2023-01-27T12:20:22.066Z, 41.24
2023-01-27T12:21:22.118Z, 41.14
2023-01-27T12:22:22.060Z, 41.00
2023-01-27T12:23:22.136Z, 40.90
2023-01-27T12:24:22.200Z, 40.82
2023-01-27T12:25:22.169Z, 40.72
2023-01-27T12:26:22.138Z, 40.60
2023-01-27T12:27:22.131Z, 40.52
2023-01-27T12:28:22.135Z, 40.41